createdAt,value
2022-08-20T00:00:22.135Z,99.90
2022-08-20T00:02:56.014Z,99.90
2022-08-20T00:05:32.921Z,99.90
2022-08-20T00:08:04.254Z,99.90
2022-08-20T00:10:35.181Z,99.90
2022-08-20T00:13:04.607Z,99.90
2022-08-20T00:15:37.230Z,99.90
2022-08-20T00:18:09.341Z,99.90
2022-08-20T00:20:44.163Z,99.90
2022-08-20T00:23:13.328Z,99.90
2022-08-20T00:25:43.641Z,99.90
2022-08-20T00:28:13.361Z,99.90
2022-08-20T00:30:44.097Z,99.90
2022-08-20T00:33:18.157Z,99.90
2022-08-20T00:35:52.119Z,99.90
2022-08-20T00:38:21.386Z,99.90
2022-08-20T00:40:53.043Z,99.90
2022-08-20T00:43:37.655Z,99.90
2022-08-20T00:46:09.174Z,99.90
2022-08-20T00:48:43.676Z,99.90
2022-08-20T00:51:17.557Z,99.90
2022-08-20T00:53:46.945Z,99.90
2022-08-20T00:56:17.225Z,99.90
2022-08-20T00:58:47.285Z,99.90
2022-08-20T01:01:17.267Z,99.90
2022-08-20T01:03:51.124Z,99.90
2022-08-20T01:06:19.883Z,99.90
2022-08-20T01:08:54.672Z,99.90
2022-08-20T01:11:37.112Z,99.90
2022-08-20T01:14:23.774Z,99.90
2022-08-20T01:16:57.071Z,99.90
2022-08-20T01:19:32.251Z,99.90
2022-08-20T01:22:01.920Z,99.90
2022-08-20T01:24:36.355Z,99.90
2022-08-20T01:27:11.995Z,99.90
2022-08-20T01:29:43.648Z,99.90
2022-08-20T01:32:12.768Z,99.90
2022-08-20T01:34:41.485Z,99.90
2022-08-20T01:37:10.557Z,99.90
2022-08-20T01:39:39.656Z,99.90
2022-08-20T01:42:14.527Z,99.90
2022-08-20T01:44:45.190Z,99.90
2022-08-20T01:47:21.173Z,99.90
2022-08-20T01:50:01.092Z,99.90
2022-08-20T01:52:51.841Z,99.90
2022-08-20T01:55:21.363Z,99.90
2022-08-20T01:57:52.011Z,99.90
2022-08-20T02:00:22.482Z,99.90
2022-08-20T02:02:51.605Z,99.90
2022-08-20T02:05:21.093Z,99.90
2022-08-20T02:07:53.039Z,99.90
2022-08-20T02:10:23.244Z,99.90
2022-08-20T02:12:53.808Z,99.90
2022-08-20T02:15:34.728Z,99.90
2022-08-20T02:18:08.218Z,99.90
2022-08-20T02:20:38.155Z,99.90
2022-08-20T02:23:08.282Z,99.90
2022-08-20T02:25:40.895Z,99.90
2022-08-20T02:28:14.193Z,99.90
2022-08-20T02:30:48.492Z,99.90
2022-08-20T02:33:19.753Z,99.90
2022-08-20T02:35:56.697Z,99.90
2022-08-20T02:38:26.024Z,99.90
2022-08-20T02:40:55.092Z,99.90
2022-08-20T02:43:26.087Z,99.90
2022-08-20T02:45:56.083Z,99.90
2022-08-20T02:48:25.490Z,99.90
2022-08-20T02:50:56.995Z,99.90
2022-08-20T02:53:26.601Z,99.90
2022-08-20T02:55:55.565Z,99.90
2022-08-20T02:58:26.824Z,99.90
2022-08-20T03:00:56.864Z,99.90
2022-08-20T03:03:26.101Z,99.90
2022-08-20T03:05:59.714Z,99.90
2022-08-20T03:08:30.138Z,99.90
2022-08-20T03:10:59.763Z,99.90
2022-08-20T03:13:33.043Z,99.90
2022-08-20T03:16:03.927Z,99.90
2022-08-20T03:18:36.466Z,99.90
2022-08-20T03:21:07.215Z,99.90
2022-08-20T03:23:43.563Z,99.90
2022-08-20T03:26:17.155Z,99.90
2022-08-20T03:28:49.376Z,99.90
2022-08-20T03:31:18.511Z,99.90
2022-08-20T03:33:52.681Z,99.90
2022-08-20T03:36:27.722Z,99.90
2022-08-20T03:38:57.782Z,99.90
2022-08-20T03:41:27.058Z,99.90
2022-08-20T03:44:00.266Z,99.90
2022-08-20T03:46:29.452Z,99.90
2022-08-20T03:49:01.903Z,99.90
2022-08-20T03:51:31.568Z,99.90
2022-08-20T03:54:03.919Z,99.90
2022-08-20T03:56:35.658Z,99.90
2022-08-20T03:59:08.969Z,99.90
2022-08-20T04:01:46.150Z,99.90
2022-08-20T04:04:16.374Z,99.90
2022-08-20T04:06:47.883Z,99.90
2022-08-20T04:09:17.848Z,99.90
2022-08-20T04:11:46.842Z,99.90
2022-08-20T04:14:19.551Z,99.90
2022-08-20T04:16:49.900Z,99.90
2022-08-20T04:19:34.130Z,99.90
2022-08-20T04:22:04.309Z,99.90
2022-08-20T04:24:33.787Z,99.90
2022-08-20T04:27:05.428Z,99.90
2022-08-20T04:29:36.976Z,99.90
2022-08-20T04:32:07.821Z,99.90
2022-08-20T04:34:37.477Z,99.90
2022-08-20T04:37:17.313Z,99.90
2022-08-20T04:40:07.217Z,99.90
2022-08-20T04:42:37.563Z,99.90
2022-08-20T04:45:12.756Z,99.90
2022-08-20T04:47:42.096Z,99.90
2022-08-20T04:50:13.377Z,99.90
2022-08-20T04:52:42.788Z,99.90
2022-08-20T04:55:12.554Z,99.90
2022-08-20T04:57:41.766Z,99.90
2022-08-20T05:00:17.717Z,99.90
2022-08-20T05:02:46.916Z,99.90
2022-08-20T05:05:16.032Z,99.90
2022-08-20T05:07:47.404Z,99.90
2022-08-20T05:10:18.459Z,99.90
2022-08-20T05:12:53.493Z,99.90
2022-08-20T05:15:27.480Z,99.90
2022-08-20T05:18:00.894Z,99.90
2022-08-20T05:20:33.368Z,99.90
2022-08-20T05:23:03.924Z,99.90
2022-08-20T05:25:33.150Z,99.90
2022-08-20T05:28:04.855Z,99.90
2022-08-20T05:30:37.720Z,99.90
2022-08-20T05:33:08.965Z,99.90
2022-08-20T05:35:40.606Z,99.90
2022-08-20T05:38:11.991Z,99.90
2022-08-20T05:40:42.382Z,99.90
2022-08-20T05:43:11.878Z,99.90
2022-08-20T05:45:44.542Z,99.90
2022-08-20T05:48:16.123Z,99.90
2022-08-20T05:50:49.824Z,99.90
2022-08-20T05:53:19.573Z,99.90
2022-08-20T05:55:49.706Z,99.90
2022-08-20T05:58:21.293Z,99.90
2022-08-20T06:00:56.625Z,99.90
2022-08-20T06:03:42.827Z,99.90
2022-08-20T06:06:14.987Z,99.90
2022-08-20T06:09:04.036Z,99.90
2022-08-20T06:11:37.186Z,99.90
2022-08-20T06:14:06.899Z,99.90
2022-08-20T06:16:38.138Z,99.90
2022-08-20T06:19:11.379Z,99.90
2022-08-20T06:21:41.501Z,99.90
2022-08-20T06:24:10.791Z,99.90
2022-08-20T06:26:39.641Z,99.90
2022-08-20T06:29:08.759Z,99.90
2022-08-20T06:31:40.282Z,99.90
2022-08-20T06:34:09.518Z,99.90
2022-08-20T06:36:38.427Z,99.90
2022-08-20T06:39:07.458Z,99.90
2022-08-20T06:41:39.347Z,99.90
2022-08-20T06:44:11.006Z,99.90
2022-08-20T06:46:43.666Z,99.90
2022-08-20T06:49:12.824Z,99.90
2022-08-20T06:51:41.822Z,99.90
2022-08-20T06:54:10.771Z,99.90
2022-08-20T06:56:39.535Z,99.90
2022-08-20T06:59:12.145Z,99.90
2022-08-20T07:01:47.264Z,99.90
2022-08-20T07:04:16.355Z,99.90
2022-08-20T07:06:45.497Z,99.90
2022-08-20T07:09:14.830Z,99.90
2022-08-20T07:11:44.366Z,99.90
2022-08-20T07:14:19.415Z,99.90
2022-08-20T07:16:50.951Z,99.90
2022-08-20T07:19:20.650Z,99.90
2022-08-20T07:21:51.159Z,99.90
2022-08-20T07:24:23.050Z,99.90
2022-08-20T07:26:52.239Z,99.90
2022-08-20T07:29:47.865Z,99.90
2022-08-20T07:32:39.423Z,99.90
2022-08-20T07:35:14.353Z,99.90
2022-08-20T07:37:45.621Z,99.90
2022-08-20T07:40:21.284Z,99.90
2022-08-20T07:42:54.070Z,99.90
2022-08-20T07:45:24.444Z,99.90
2022-08-20T07:47:56.246Z,99.90
2022-08-20T07:50:27.875Z,99.90
2022-08-20T07:52:56.874Z,99.90
2022-08-20T07:55:25.705Z,99.90
2022-08-20T07:57:56.165Z,99.90
2022-08-20T08:00:25.386Z,99.90
2022-08-20T08:02:56.070Z,99.90
2022-08-20T08:05:25.079Z,99.90
2022-08-20T08:07:54.437Z,99.90
2022-08-20T08:10:27.465Z,99.90
2022-08-20T08:13:00.756Z,99.90
2022-08-20T08:15:34.716Z,99.90
2022-08-20T08:18:10.641Z,99.90
2022-08-20T08:20:46.695Z,99.90
2022-08-20T08:23:24.958Z,99.90
2022-08-20T08:26:00.690Z,99.90
2022-08-20T08:28:30.695Z,99.90
2022-08-20T08:31:00.124Z,99.90
2022-08-20T08:33:33.523Z,99.90
2022-08-20T08:36:04.459Z,99.90
2022-08-20T08:38:36.778Z,99.90
2022-08-20T08:41:17.228Z,99.90
2022-08-20T08:43:48.427Z,99.90
2022-08-20T08:46:21.780Z,99.90
2022-08-20T08:48:57.416Z,99.90
2022-08-20T08:51:31.574Z,99.90
2022-08-20T08:54:05.986Z,99.90
2022-08-20T08:56:36.757Z,99.90
2022-08-20T08:59:09.119Z,99.90
2022-08-20T09:01:54.323Z,99.90
2022-08-20T09:04:32.431Z,99.90
2022-08-20T09:07:03.314Z,99.90
2022-08-20T09:09:36.064Z,99.90
2022-08-20T09:12:07.606Z,99.90
2022-08-20T09:14:37.286Z,99.90
2022-08-20T09:17:06.779Z,99.90
2022-08-20T09:19:37.042Z,99.90
2022-08-20T09:22:09.656Z,99.90
2022-08-20T09:24:38.905Z,99.90
2022-08-20T09:27:08.253Z,99.90
2022-08-20T09:29:37.657Z,99.90
2022-08-20T09:32:09.262Z,99.90
2022-08-20T09:34:41.383Z,99.30
2022-08-20T09:37:10.303Z,98.60
2022-08-20T09:39:39.444Z,98.00
2022-08-20T09:42:09.506Z,99.00
2022-08-20T09:44:38.096Z,98.70
2022-08-20T09:47:07.450Z,98.10
2022-08-20T09:49:37.483Z,98.20
2022-08-20T09:52:09.056Z,97.70
2022-08-20T09:54:38.950Z,98.20
2022-08-20T09:57:13.999Z,98.50
2022-08-20T09:59:42.758Z,97.80
2022-08-20T10:02:11.486Z,96.70
2022-08-20T10:04:40.144Z,96.10
2022-08-20T10:07:12.327Z,96.70
2022-08-20T10:09:44.585Z,97.20
2022-08-20T10:12:13.569Z,97.00
2022-08-20T10:14:42.198Z,96.70
2022-08-20T10:17:11.086Z,96.90
2022-08-20T10:19:39.819Z,96.90
2022-08-20T10:22:08.681Z,98.00
2022-08-20T10:24:38.857Z,98.30
2022-08-20T10:27:08.116Z,98.40
2022-08-20T10:29:37.120Z,98.20
2022-08-20T10:32:14.318Z,98.70
2022-08-20T10:34:44.651Z,98.40
2022-08-20T10:37:17.074Z,97.80
2022-08-20T10:39:47.838Z,97.10
2022-08-20T10:42:16.993Z,96.80
2022-08-20T10:44:45.584Z,96.20
2022-08-20T10:47:21.055Z,97.00
2022-08-20T10:49:52.447Z,97.10
2022-08-20T10:52:22.054Z,95.90
2022-08-20T10:54:52.665Z,95.40
2022-08-20T10:57:24.150Z,94.50
2022-08-20T10:59:54.918Z,94.50
2022-08-20T11:02:24.167Z,94.30
2022-08-20T11:04:54.009Z,93.20
2022-08-20T11:07:50.695Z,91.90
2022-08-20T11:10:17.387Z,91.20
2022-08-20T11:12:46.408Z,91.60
2022-08-20T11:15:16.349Z,91.70
2022-08-20T11:17:46.066Z,90.70
2022-08-20T11:20:17.938Z,89.70
2022-08-20T11:22:46.980Z,89.10
2022-08-20T11:25:17.205Z,87.00
2022-08-20T11:27:48.399Z,82.70
2022-08-20T11:30:20.877Z,82.90
2022-08-20T11:32:49.837Z,83.80
2022-08-20T11:35:41.622Z,83.30
2022-08-20T11:38:07.864Z,83.20
2022-08-20T11:40:38.174Z,82.70
2022-08-20T11:43:15.610Z,81.60
2022-08-20T11:45:45.563Z,80.50
2022-08-20T11:48:14.326Z,77.80
2022-08-20T11:50:43.444Z,76.20
2022-08-20T11:53:12.323Z,77.20
2022-08-20T11:55:42.512Z,77.00
2022-08-20T11:58:14.257Z,75.70
2022-08-20T12:00:43.665Z,76.30
2022-08-20T12:03:12.683Z,74.20
2022-08-20T12:05:43.558Z,73.10
2022-08-20T12:08:25.461Z,72.60
2022-08-20T12:10:58.920Z,73.80
2022-08-20T12:13:39.679Z,74.10
2022-08-20T12:16:17.215Z,74.80
2022-08-20T12:18:46.487Z,76.80
2022-08-20T12:21:15.899Z,77.70
2022-08-20T12:23:44.838Z,77.90
2022-08-20T12:26:16.934Z,77.00
2022-08-20T12:28:45.623Z,76.00
2022-08-20T12:31:14.274Z,76.40
2022-08-20T12:33:42.767Z,78.10
2022-08-20T12:36:11.958Z,77.40
2022-08-20T12:38:40.570Z,77.90
2022-08-20T12:41:09.185Z,78.40
2022-08-20T12:43:39.642Z,77.70
2022-08-20T12:46:08.404Z,77.80
2022-08-20T12:48:53.623Z,77.20
2022-08-20T12:51:24.287Z,77.90
2022-08-20T12:53:53.110Z,78.20
2022-08-20T12:56:26.165Z,77.90
2022-08-20T12:59:03.137Z,77.00
2022-08-20T13:01:31.917Z,77.70
2022-08-20T13:04:00.618Z,77.30
2022-08-20T13:06:29.349Z,77.20
2022-08-20T13:08:57.890Z,75.70
2022-08-20T13:11:26.455Z,76.20
2022-08-20T13:13:56.825Z,77.20
2022-08-20T13:16:25.764Z,76.70
2022-08-20T13:18:55.600Z,76.00
2022-08-20T13:21:24.194Z,76.80
2022-08-20T13:23:52.859Z,76.50
2022-08-20T13:26:21.578Z,75.20
2022-08-20T13:28:50.431Z,72.70
2022-08-20T13:31:20.621Z,70.00
2022-08-20T13:33:50.553Z,69.60
2022-08-20T13:36:19.431Z,69.20
2022-08-20T13:38:48.216Z,69.90
2022-08-20T13:41:17.129Z,71.80
2022-08-20T13:43:45.800Z,73.30
2022-08-20T13:46:14.498Z,73.70
2022-08-20T13:48:44.937Z,73.30
2022-08-20T13:51:13.759Z,70.50
2022-08-20T13:53:47.852Z,68.60
2022-08-20T13:56:18.758Z,68.10
2022-08-20T13:58:47.501Z,67.70
2022-08-20T14:01:16.219Z,68.60
2022-08-20T14:03:48.073Z,68.50
2022-08-20T14:06:17.406Z,69.70
2022-08-20T14:08:46.031Z,71.30
2022-08-20T14:11:17.771Z,72.10
2022-08-20T14:13:47.056Z,73.10
2022-08-20T14:16:27.121Z,70.90
2022-08-20T14:19:01.969Z,68.60
2022-08-20T14:21:32.784Z,69.00
2022-08-20T14:24:03.946Z,68.20
2022-08-20T14:26:32.772Z,64.40
2022-08-20T14:29:06.261Z,62.20
2022-08-20T14:31:35.382Z,61.20
2022-08-20T14:34:05.613Z,61.80
2022-08-20T14:36:34.412Z,63.30
2022-08-20T14:39:03.069Z,63.90
2022-08-20T14:41:31.870Z,64.60
2022-08-20T14:44:01.068Z,65.50
2022-08-20T14:46:34.242Z,67.00
2022-08-20T14:49:04.723Z,68.50
2022-08-20T14:51:33.616Z,68.90
2022-08-20T14:54:02.194Z,70.50
2022-08-20T14:56:31.037Z,70.70
2022-08-20T14:58:59.848Z,70.10
2022-08-20T15:01:28.615Z,70.30
2022-08-20T15:03:57.675Z,70.00
2022-08-20T15:06:29.769Z,68.90
2022-08-20T15:08:58.745Z,68.80
2022-08-20T15:11:34.670Z,68.90
2022-08-20T15:14:11.188Z,70.10
2022-08-20T15:16:46.597Z,69.80
2022-08-20T15:19:22.582Z,69.60
2022-08-20T15:21:54.445Z,70.10
2022-08-20T15:24:25.481Z,68.10
2022-08-20T15:26:55.215Z,66.00
2022-08-20T15:29:23.989Z,66.10
2022-08-20T15:31:52.803Z,65.40
2022-08-20T15:34:21.534Z,64.90
2022-08-20T15:36:51.538Z,65.70
2022-08-20T15:39:20.321Z,66.10
2022-08-20T15:41:49.367Z,65.70
2022-08-20T15:44:18.210Z,62.80
2022-08-20T15:46:46.914Z,59.90
2022-08-20T15:49:17.293Z,57.90
2022-08-20T15:51:49.728Z,57.10
2022-08-20T15:54:24.804Z,56.60
2022-08-20T15:57:04.303Z,56.10
2022-08-20T15:59:53.526Z,56.90
2022-08-20T16:02:41.169Z,58.20
2022-08-20T16:05:25.758Z,60.90
2022-08-20T16:08:06.103Z,62.70
2022-08-20T16:10:47.023Z,62.80
2022-08-20T16:13:28.772Z,62.30
2022-08-20T16:16:01.154Z,62.90
2022-08-20T16:18:34.327Z,62.20
2022-08-20T16:21:08.020Z,60.50
2022-08-20T16:23:40.888Z,57.50
2022-08-20T16:26:25.275Z,56.20
2022-08-20T16:29:03.817Z,55.10
2022-08-20T16:31:41.784Z,54.40
2022-08-20T16:34:23.499Z,54.60
2022-08-20T16:37:06.441Z,54.40
2022-08-20T16:39:44.750Z,54.70
2022-08-20T16:42:25.782Z,55.50
2022-08-20T16:44:57.025Z,55.20
2022-08-20T16:47:30.341Z,54.70
2022-08-20T16:50:03.475Z,55.90
2022-08-20T16:52:32.390Z,56.70
2022-08-20T16:55:01.202Z,56.30
2022-08-20T16:57:31.849Z,56.70
2022-08-20T17:00:08.232Z,57.50
2022-08-20T17:02:37.163Z,57.20
2022-08-20T17:05:06.796Z,57.50
2022-08-20T17:07:46.039Z,58.80
2022-08-20T17:10:21.816Z,59.60
2022-08-20T17:13:00.029Z,60.70
2022-08-20T17:15:31.563Z,61.90
2022-08-20T17:18:19.764Z,63.70
2022-08-20T17:20:48.621Z,65.10
2022-08-20T17:23:19.373Z,65.30
2022-08-20T17:25:58.485Z,66.20
2022-08-20T17:28:35.036Z,66.30
2022-08-20T17:31:04.438Z,66.10
2022-08-20T17:33:36.960Z,66.50
2022-08-20T17:36:11.368Z,66.40
2022-08-20T17:38:47.210Z,66.70
2022-08-20T17:41:23.544Z,67.60
2022-08-20T17:44:02.471Z,68.30
2022-08-20T17:46:34.914Z,68.80
2022-08-20T17:49:09.906Z,69.40
2022-08-20T17:51:45.629Z,69.30
2022-08-20T17:54:17.490Z,69.60
2022-08-20T17:56:46.420Z,69.50
2022-08-20T17:59:33.568Z,69.90
2022-08-20T18:02:11.400Z,70.40
2022-08-20T18:04:40.688Z,71.10
2022-08-20T18:07:20.861Z,71.50
2022-08-20T18:10:08.276Z,72.00
2022-08-20T18:12:42.786Z,72.70
2022-08-20T18:15:22.368Z,73.20
2022-08-20T18:18:20.494Z,73.70
2022-08-20T18:21:15.609Z,74.30
2022-08-20T18:23:48.876Z,74.50
2022-08-20T18:26:23.089Z,75.40
2022-08-20T18:28:58.197Z,76.00
2022-08-20T18:31:33.156Z,75.90
2022-08-20T18:34:13.247Z,76.10
2022-08-20T18:36:42.570Z,76.00
2022-08-20T18:39:25.846Z,76.00
2022-08-20T18:42:01.467Z,76.30
2022-08-20T18:44:37.106Z,76.10
2022-08-20T18:47:22.227Z,76.30
2022-08-20T18:50:07.469Z,76.60
2022-08-20T18:52:48.694Z,76.80
2022-08-20T18:55:31.112Z,77.00
2022-08-20T18:58:02.777Z,77.70
2022-08-20T19:00:41.527Z,77.90
2022-08-20T19:03:24.411Z,78.60
2022-08-20T19:06:10.701Z,78.80
2022-08-20T19:08:49.000Z,80.00
2022-08-20T19:11:53.662Z,80.60
2022-08-20T19:14:43.025Z,81.30
2022-08-20T19:17:18.014Z,81.30
2022-08-20T19:19:59.737Z,82.70
2022-08-20T19:22:29.173Z,83.20
2022-08-20T19:25:01.185Z,83.10
2022-08-20T19:27:31.258Z,83.00
2022-08-20T19:29:59.909Z,83.10
2022-08-20T19:32:31.230Z,82.90
2022-08-20T19:35:05.073Z,82.60
2022-08-20T19:37:49.670Z,82.40
2022-08-20T19:40:24.472Z,82.70
2022-08-20T19:42:59.872Z,82.80
2022-08-20T19:45:33.224Z,83.00
2022-08-20T19:48:30.634Z,83.30
2022-08-20T19:51:15.323Z,83.90
2022-08-20T19:53:49.994Z,84.10
2022-08-20T19:56:21.592Z,84.40
2022-08-20T19:59:00.363Z,84.60
2022-08-20T20:01:29.957Z,85.00
2022-08-20T20:04:01.202Z,85.20
2022-08-20T20:06:36.643Z,85.50
2022-08-20T20:09:09.143Z,85.60
2022-08-20T20:11:46.462Z,85.90
2022-08-20T20:14:28.892Z,86.30
2022-08-20T20:16:59.032Z,86.60
2022-08-20T20:19:28.966Z,87.00
2022-08-20T20:22:19.248Z,87.50
2022-08-20T20:24:51.459Z,87.70
2022-08-20T20:27:26.937Z,88.00
2022-08-20T20:30:01.589Z,88.40
2022-08-20T20:32:33.773Z,88.40
2022-08-20T20:35:06.119Z,88.80
2022-08-20T20:37:49.154Z,89.10
2022-08-20T20:40:25.975Z,89.20
2022-08-20T20:43:07.547Z,89.60
2022-08-20T20:45:38.964Z,90.10
2022-08-20T20:48:19.478Z,90.40
2022-08-20T20:50:49.790Z,90.70
2022-08-20T20:53:53.252Z,91.20
2022-08-20T20:56:40.227Z,92.00
2022-08-20T20:59:10.854Z,92.30
2022-08-20T21:01:48.220Z,92.30
2022-08-20T21:04:20.448Z,92.40
2022-08-20T21:06:50.087Z,92.50
2022-08-20T21:09:20.602Z,92.60
2022-08-20T21:11:49.990Z,93.00
2022-08-20T21:14:19.575Z,93.40
2022-08-20T21:16:49.265Z,94.00
2022-08-20T21:19:19.514Z,94.70
2022-08-20T21:21:48.552Z,94.90
2022-08-20T21:24:17.912Z,95.50
2022-08-20T21:26:49.336Z,96.30
2022-08-20T21:29:24.193Z,96.10
2022-08-20T21:31:53.807Z,96.80
2022-08-20T21:34:23.598Z,97.00
2022-08-20T21:36:53.176Z,97.30
2022-08-20T21:39:23.851Z,97.70
2022-08-20T21:41:57.126Z,98.00
2022-08-20T21:44:31.672Z,98.30
2022-08-20T21:47:05.301Z,98.30
2022-08-20T21:49:34.309Z,98.30
2022-08-20T21:52:03.692Z,98.30
2022-08-20T21:54:38.916Z,98.30
2022-08-20T21:57:15.289Z,98.90
2022-08-20T21:59:44.219Z,99.30
2022-08-20T22:02:14.018Z,99.40
2022-08-20T22:04:43.293Z,99.80
2022-08-20T22:07:12.411Z,99.90
2022-08-20T22:09:44.115Z,99.90
2022-08-20T22:12:18.943Z,99.90
2022-08-20T22:14:48.523Z,99.90
2022-08-20T22:17:19.390Z,99.90
2022-08-20T22:19:52.418Z,99.90
2022-08-20T22:22:23.617Z,99.90
2022-08-20T22:24:52.415Z,99.90
2022-08-20T22:27:22.422Z,99.90
2022-08-20T22:29:51.096Z,99.90
2022-08-20T22:32:20.386Z,99.90
2022-08-20T22:35:02.525Z,99.90
2022-08-20T22:37:35.153Z,99.90
2022-08-20T22:40:04.150Z,99.90
2022-08-20T22:42:34.325Z,99.90
2022-08-20T22:45:03.004Z,99.90
2022-08-20T22:47:31.696Z,99.90
2022-08-20T22:50:00.452Z,99.90
2022-08-20T22:52:29.221Z,99.90
2022-08-20T22:54:58.067Z,99.90
2022-08-20T22:57:28.095Z,99.90
2022-08-20T22:59:58.516Z,99.90
2022-08-20T23:02:27.197Z,99.90
2022-08-20T23:04:55.771Z,99.90
2022-08-20T23:07:24.393Z,99.90
2022-08-20T23:09:53.060Z,99.90
2022-08-20T23:12:21.725Z,99.90
2022-08-20T23:14:50.701Z,99.90
2022-08-20T23:17:20.930Z,99.90
2022-08-20T23:19:50.924Z,99.90
2022-08-20T23:22:21.032Z,99.90
2022-08-20T23:24:49.542Z,99.90
2022-08-20T23:27:21.096Z,99.90
2022-08-20T23:29:49.603Z,99.90
2022-08-20T23:32:18.206Z,99.90
2022-08-20T23:34:48.106Z,99.90
2022-08-20T23:37:20.148Z,99.90
2022-08-20T23:39:49.925Z,99.90
2022-08-20T23:42:18.860Z,99.90
2022-08-20T23:44:47.518Z,99.90
2022-08-20T23:47:21.669Z,99.90
2022-08-20T23:49:52.093Z,99.90
2022-08-20T23:52:20.818Z,99.90
2022-08-20T23:54:49.331Z,99.90
2022-08-20T23:57:20.944Z,99.90
2022-08-20T23:59:49.870Z,99.90
